Grafton, Iowa
Current Conditions -  °F | °C
As of 1:53 PM on Wednesday 28 Jan 2015 (Local Time) from KMCW Reporting Station
Haze Haze  
Wind Chill: 24°   Ceiling: 900
Heat Index: 34°   Visibility: 4mi
Dew Point: 30°   Wind: 16mph
Humidity: 85%   Direction: 140°SE
Pressure: 29.8"   Gusts: 21mph
Location:  43.33°N, 93.07°W
Report Text: KMCW 281953Z AUTO 14014G18KT 4SM BR OVC009 01/M01 A2980 RMK AO2 SLP097 T00111011 PWINO FZRANO $
Loading
Personal Weather Stations






























Interactive Weather Map New forecast layout! Learn more

10-Day Weather Forecast

Advertisements
Track Severe Weather on mobile